Terminal Aerodrome Forecast
Issued by NWS

Home | Current Version | Previous Version | Text Only | Print | Product List | Glossary On
Versions: 1 2 3 4 5 6 7 8 9 10 11 12 13
870
FTAK31 PAFA 221141
TAFAMC
TAF
PAMC 221141Z 2212/2312 00000KT P6SM BKN060
     FM221800 10006KT P6SM BKN090 BKN200=

USA.gov is the U.S. government's official web portal to all federal, state and local government web resources and services.